Meaford, Canada
Current Conditions -  °F | °C
As of 6:00 AM on Wednesday 26 Nov 2014 (Local Time) from CYVV Reporting Station
Snow Showers Snow Showers  
Wind Chill: 30°   Ceiling: 3000
Heat Index: 30°   Visibility: 15mi
Dew Point: 27°   Wind: 2mph
Humidity: 86%   Direction: 70°ENE
Pressure: 30.18"   Gusts: NA
Location:  44.61°N, 80.59°W
Report Text: CYVV 261100Z 07002KT 15SM -SHSN OVC030 M01/M03 A3018 RMK SC8 VIS LWR SE SLP230
Loading
Personal Weather Stations






























Interactive Weather Map New forecast layout! Learn more

10-Day Weather Forecast

Advertisements
Track Severe Weather on mobile